FTTY

Faya Largeau Airport

Chad
METAR FTTY 191500Z 00000KT CAVOK 33/02 Q1010
Observed Flight Rules
Feb-19 @ 15:00 UTC (16 hours ago) Visual Flight Rules
Wind Visibility Clouds
Calm 10,000+ meters
  • Clear skies
Temperatures Readings
Current 33°C / 91°F
Dewpoint 2°C / 36°F
Humidity 14%
Altimeter 29.82" Hg
Pressure 1010 hPa
Elevation 234
METAR FTTY 191500Z 00000KT CAVOK 33/02 Q1010
Observed Flight Rules
Feb-19 @ 15:00 UTC
(16 hours ago)
VFR
Wind Visibility
Calm 10,000+ meters
Clouds
  • Clear skies
Temperature Dewpoint
33°C / 91°F 2°C / 36°F
Humidity Altimeter Pressure
14% 29.82" Hg 1010 hPa